Sarasota Bradenton International Airport
KSRQ : now visible

Airfield :











YOU CAN JOIN US ON...

 
LOGIN :

Register | Disclaimer

   EN    FR    IT 

 









Legend :    VFR   Marginal VFR   IFR   Intensive IFR   Very Intensive IFR
Visi :
Ceiling :
>= 8 km
>= 3000ft
5 to 8 km
1000 to 3000 ft
1500m to 5 km
500 to 1000 ft
800 to 1500m
200 to 500 ft
< 800m
< 200 ft
Symbols :   Thunderstorms  Fog  Heavy snow  Heavy precipitations  Wind > 20 kt






- Airport Elevation : 30 ft
- IATA code : SRQ


KSRQ - Sarasota Bradenton International

CURRENT METAR :
  • 130753Z AUTO 12004KT 10SM CLR 27/25 A3011 RMK AO2 SLP196 T02670250 PNO $

EXPIRED METARs :
  • 130653Z AUTO 00000KT 10SM CLR 28/25 A3012 RMK AO2 SLP197 T02780250 PNO $
  • 130553Z AUTO 26006KT 10SM CLR 28/25 A3012 RMK AO2 SLP197 6//// T02830250 10289 20261 58007 PNO $
  • 130453Z 26006KT 10SM CLR 28/25 A3013 RMK AO2 LTG DSNT NW SLP203 T02830250 403280250 PNO $
  • 130414Z 24006KT 10SM FEW021 28/25 A3014 RMK AO2 T02830250 PNO $
  • 130353Z 24005KT 10SM BKN021 BKN028 28/25 A3015 RMK AO2 LTG DSNT NW SLP207 T02830250 PNO $

TAF KSRQ
Valid from the 13 at 06:00 until the 14 at 06:00 UTC


130520Z 1306/1406 VRB04KT P6SM BKN250
FM131600 22005KT P6SM FEW030 SCT250
FM131900 26008KT P6SM VCTS SCT030CB BKN250
FM132300 32006KT P6SM FEW030 SCT250
FM140200 VRB03KT P6SM SCT250
KZMA FIR / North America



MET'MAP, your aeronautical weather chart ! - Copyright ORBIFLY December 2007 - Disclaimer

ORBIFLY MET'MAP TEAM :

Programming & Development : Alexandra Zaïnal
Original concept : Baudouin d'Aumeries
Technical & hardware support : Manuel Goepfert
Assistance : Marc-Olivier Méhu




SOURCES & CREDITS :

   NOAA       Earth
Advisory